Time;durP1;ratioP1;P1;durP2;ratioP2;P2;SDS_P1;SDS_P2;PMS_P1;PMS_P2;Temp;Humidity;BMP_temperature;BMP_pressure;BME280_temperature;BME280_humidity;BME280_pressure;Samples;Min_cycle;Max_cycle;Signal;HPM_P1;HPM_P2
2023/10/27 00:02:03;;;;;;;15.97;3.20;;;13.50;84.80;;;;;;5073564;28;20524;-79
2023/10/27 00:04:31;;;;;;;13.77;3.50;;;13.40;84.80;;;;;;5073385;28;20461;-78
2023/10/27 00:07:00;;;;;;;12.00;3.23;;;13.50;84.90;;;;;;5070668;28;20534;-79
2023/10/27 00:09:31;;;;;;;13.20;3.60;;;13.50;84.80;;;;;;5065579;28;20467;-79
2023/10/27 00:11:59;;;;;;;9.07;2.33;;;13.50;84.80;;;;;;5076456;28;20804;-78
2023/10/27 00:14:27;;;;;;;15.60;3.10;;;13.50;84.70;;;;;;5064785;28;20850;-81
2023/10/27 00:16:57;;;;;;;8.97;2.90;;;13.50;84.70;;;;;;5069689;28;21243;-81
2023/10/27 00:19:25;;;;;;;7.97;2.63;;;13.50;84.70;;;;;;5074775;28;20943;-80
2023/10/27 00:21:53;;;;;;;9.03;3.23;;;13.40;84.60;;;;;;5065945;28;20534;-79
2023/10/27 00:24:21;;;;;;;14.73;3.07;;;13.40;84.60;;;;;;5074071;28;20878;-82
2023/10/27 00:26:50;;;;;;;17.17;3.67;;;13.40;84.60;;;;;;5075148;28;20462;-82
2023/10/27 00:29:19;;;;;;;17.30;3.17;;;13.40;84.60;;;;;;5069932;28;20523;-81
2023/10/27 00:31:47;;;;;;;15.87;3.43;;;13.40;84.60;;;;;;5067513;28;21333;-80
2023/10/27 00:34:16;;;;;;;8.80;2.90;;;13.40;84.50;;;;;;5071285;28;20461;-79
2023/10/27 00:36:44;;;;;;;17.07;3.83;;;13.40;84.50;;;;;;5069042;28;20560;-78
2023/10/27 00:39:13;;;;;;;7.90;2.53;;;13.40;84.40;;;;;;5069593;28;20725;-78
2023/10/27 00:41:41;;;;;;;12.90;3.30;;;13.30;84.50;;;;;;5071706;28;20964;-78
2023/10/27 00:44:09;;;;;;;14.73;3.40;;;13.30;84.50;;;;;;5068666;28;20560;-79
2023/10/27 00:46:37;;;;;;;20.03;5.00;;;13.30;84.50;;;;;;5076593;28;20452;-78
2023/10/27 00:49:05;;;;;;;17.50;3.47;;;13.30;84.60;;;;;;5067340;28;20486;-80
2023/10/27 00:51:35;;;;;;;11.93;3.57;;;13.30;84.50;;;;;;5073273;28;20458;-78
2023/10/27 00:54:03;;;;;;;10.43;3.10;;;13.30;84.50;;;;;;5069748;28;20461;-81
2023/10/27 00:56:31;;;;;;;15.90;3.57;;;13.30;84.50;;;;;;5079670;28;20496;-78
2023/10/27 00:58:59;;;;;;;12.80;3.37;;;13.30;84.50;;;;;;5074491;28;20450;-78
2023/10/27 01:01:27;;;;;;;14.80;3.47;;;13.30;84.50;;;;;;5077296;28;20477;-79
2023/10/27 01:03:56;;;;;;;13.57;3.50;;;13.30;84.50;;;;;;5070689;28;21327;-78
2023/10/27 01:06:26;;;;;;;9.77;2.60;;;13.30;84.50;;;;;;5069452;28;20455;-80
2023/10/27 01:08:56;;;;;;;15.90;3.30;;;13.30;84.50;;;;;;5068032;28;20548;-82
2023/10/27 01:11:24;;;;;;;15.33;3.30;;;13.30;84.40;;;;;;5072409;28;20458;-78
2023/10/27 01:13:53;;;;;;;15.73;3.40;;;13.30;84.40;;;;;;5074760;28;20494;-80
2023/10/27 01:16:22;;;;;;;12.93;3.20;;;13.30;84.40;;;;;;5069185;28;20478;-79
2023/10/27 01:18:50;;;;;;;11.83;3.63;;;13.30;84.40;;;;;;5069349;28;20495;-78
2023/10/27 01:21:18;;;;;;;11.47;2.93;;;13.30;84.30;;;;;;5067969;28;20476;-80
2023/10/27 01:23:50;;;;;;;15.80;3.40;;;13.30;84.30;;;;;;5075598;28;20551;-78
2023/10/27 01:26:18;;;;;;;8.03;2.57;;;13.30;84.30;;;;;;5068284;28;21171;-78
2023/10/27 01:28:48;;;;;;;19.60;3.77;;;13.30;84.30;;;;;;5063736;28;20520;-79
2023/10/27 01:31:16;;;;;;;13.43;3.63;;;13.30;84.30;;;;;;5070091;28;21033;-79
2023/10/27 01:33:44;;;;;;;13.37;3.60;;;13.20;84.30;;;;;;5071374;28;20863;-77
2023/10/27 01:36:13;;;;;;;16.30;3.40;;;13.20;84.30;;;;;;5069546;28;20456;-81
2023/10/27 01:38:41;;;;;;;11.70;3.30;;;13.20;84.30;;;;;;5062202;28;20978;-78
2023/10/27 01:41:10;;;;;;;17.37;3.30;;;13.20;84.30;;;;;;5071757;28;20457;-80
2023/10/27 01:43:38;;;;;;;20.07;5.33;;;13.20;84.30;;;;;;5064156;28;20461;-79
2023/10/27 01:46:06;;;;;;;21.97;6.20;;;13.20;84.30;;;;;;5075717;28;20452;-79
2023/10/27 01:48:36;;;;;;;25.30;9.57;;;13.20;84.20;;;;;;5072954;28;20485;-80
2023/10/27 01:51:04;;;;;;;108.30;38.20;;;13.20;84.20;;;;;;5072718;28;20468;-81
2023/10/27 01:53:33;;;;;;;62.70;23.10;;;13.20;84.10;;;;;;5073077;28;20548;-79
2023/10/27 01:56:01;;;;;;;39.73;16.07;;;13.10;84.10;;;;;;5072979;28;20542;-80
2023/10/27 01:58:31;;;;;;;31.13;11.33;;;13.10;84.20;;;;;;5069727;28;20486;-79
2023/10/27 02:00:59;;;;;;;28.43;12.47;;;13.10;84.30;;;;;;5068263;28;20536;-81
2023/10/27 02:03:27;;;;;;;28.00;14.23;;;13.10;84.30;;;;;;5071035;28;20967;-79
2023/10/27 02:05:55;;;;;;;38.77;15.60;;;13.10;84.40;;;;;;5069682;28;20476;-79
2023/10/27 02:08:23;;;;;;;43.97;16.67;;;13.10;84.40;;;;;;5067559;28;20465;-79
2023/10/27 02:10:51;;;;;;;112.00;40.50;;;13.10;84.40;;;;;;5068430;28;20544;-79
2023/10/27 02:13:19;;;;;;;51.70;19.60;;;13.10;84.40;;;;;;5069433;28;20518;-83
2023/10/27 02:15:49;;;;;;;29.77;9.50;;;13.10;84.30;;;;;;5071856;28;20461;-81
2023/10/27 02:18:17;;;;;;;16.60;5.80;;;13.10;84.30;;;;;;5085711;28;20552;-81
2023/10/27 02:20:47;;;;;;;21.07;8.60;;;13.00;84.40;;;;;;5068385;28;20458;-79
2023/10/27 02:23:17;;;;;;;18.67;6.67;;;13.00;84.40;;;;;;5066844;28;20554;-80
2023/10/27 02:25:46;;;;;;;24.70;8.50;;;13.00;84.50;;;;;;5079105;28;20453;-80
2023/10/27 02:28:14;;;;;;;22.20;8.67;;;13.00;84.50;;;;;;5071873;28;20452;-81
2023/10/27 02:30:42;;;;;;;24.00;7.10;;;13.00;84.60;;;;;;5068824;28;20650;-79
2023/10/27 02:33:12;;;;;;;20.70;7.87;;;13.00;84.60;;;;;;5066088;28;20559;-82
2023/10/27 02:35:40;;;;;;;24.40;5.20;;;13.10;84.60;;;;;;5068686;28;20454;-80
2023/10/27 02:38:08;;;;;;;17.13;4.90;;;13.10;84.50;;;;;;5064631;28;20507;-81
2023/10/27 02:40:36;;;;;;;10.90;3.30;;;13.10;84.50;;;;;;5067243;28;20456;-78
2023/10/27 02:43:08;;;;;;;10.63;3.80;;;13.10;84.60;;;;;;5067198;28;20465;-79
2023/10/27 02:45:37;;;;;;;20.70;4.50;;;13.20;84.60;;;;;;5061986;28;20457;-80
2023/10/27 02:48:06;;;;;;;13.77;4.10;;;13.20;84.60;;;;;;5066752;28;20826;-79
2023/10/27 02:50:37;;;;;;;15.73;3.63;;;13.20;84.50;;;;;;5072185;28;20454;-80
2023/10/27 02:53:05;;;;;;;14.10;3.67;;;13.20;84.50;;;;;;5068340;28;20544;-78
2023/10/27 02:55:36;;;;;;;10.87;3.33;;;13.20;84.50;;;;;;5069317;28;20489;-78
2023/10/27 02:58:04;;;;;;;20.47;4.60;;;13.20;84.50;;;;;;5071351;28;20993;-77
2023/10/27 03:00:32;;;;;;;12.37;3.40;;;13.20;84.50;;;;;;5069197;28;20480;-80
2023/10/27 03:03:00;;;;;;;21.07;3.87;;;13.20;84.50;;;;;;5072520;28;20572;-78
2023/10/27 03:05:29;;;;;;;22.00;3.27;;;13.30;84.40;;;;;;5070166;28;20468;-79
2023/10/27 03:07:58;;;;;;;14.13;3.50;;;13.20;84.40;;;;;;5069661;28;20454;-77
2023/10/27 03:10:26;;;;;;;13.57;3.23;;;13.20;84.40;;;;;;5072753;28;20458;-78
2023/10/27 03:12:54;;;;;;;18.13;4.07;;;13.20;84.30;;;;;;5069618;28;20457;-80
2023/10/27 03:15:22;;;;;;;18.77;3.93;;;13.20;84.40;;;;;;5071527;28;20925;-79
2023/10/27 03:17:50;;;;;;;16.10;4.07;;;13.20;84.40;;;;;;5062653;28;21093;-79
2023/10/27 03:20:19;;;;;;;16.40;4.00;;;13.20;84.30;;;;;;5073135;28;20508;-78
2023/10/27 03:22:47;;;;;;;12.73;3.90;;;13.20;84.40;;;;;;5077650;28;20619;-80
2023/10/27 03:25:16;;;;;;;10.97;3.20;;;13.20;84.40;;;;;;5075479;28;20465;-79
2023/10/27 03:27:45;;;;;;;17.83;3.63;;;13.20;84.40;;;;;;5063483;28;20458;-79
2023/10/27 03:30:14;;;;;;;15.40;3.73;;;13.20;84.50;;;;;;5065648;28;20609;-83
2023/10/27 03:32:42;;;;;;;18.80;3.83;;;13.20;84.50;;;;;;5071127;28;20500;-78
2023/10/27 03:35:10;;;;;;;17.70;4.00;;;13.30;84.50;;;;;;5070329;28;21084;-78
2023/10/27 03:37:38;;;;;;;20.13;4.07;;;13.30;84.50;;;;;;5069124;28;20474;-79
2023/10/27 03:40:08;;;;;;;15.93;3.90;;;13.30;84.40;;;;;;5074141;28;20488;-80
2023/10/27 03:42:37;;;;;;;15.90;4.57;;;13.30;84.40;;;;;;5069004;28;20469;-78
2023/10/27 03:45:07;;;;;;;19.50;4.47;;;13.30;84.40;;;;;;5073064;28;20963;-81
2023/10/27 03:47:35;;;;;;;10.57;3.33;;;13.30;84.40;;;;;;5066983;28;20506;-80
2023/10/27 03:50:05;;;;;;;19.10;4.57;;;13.30;84.40;;;;;;5067790;28;20472;-79
2023/10/27 03:52:33;;;;;;;17.33;3.20;;;13.30;84.40;;;;;;5068858;28;21421;-80
2023/10/27 03:55:02;;;;;;;16.70;4.20;;;13.30;84.40;;;;;;5070739;28;20458;-79
2023/10/27 03:57:34;;;;;;;15.23;3.17;;;13.30;84.30;;;;;;5068905;28;20457;-81
2023/10/27 04:00:04;;;;;;;14.90;3.10;;;13.30;84.40;;;;;;5069333;28;20487;-82
2023/10/27 04:02:39;;;;;;;20.97;4.07;;;13.30;84.30;;;;;;5068958;28;20967;-81
2023/10/27 04:05:07;;;;;;;14.53;3.37;;;13.30;84.40;;;;;;5075926;28;20501;-78
2023/10/27 04:07:36;;;;;;;13.20;3.67;;;13.30;84.40;;;;;;5075229;28;20472;-79
2023/10/27 04:10:06;;;;;;;17.70;3.90;;;13.30;84.40;;;;;;5078244;28;20461;-79
2023/10/27 04:12:35;;;;;;;13.43;3.07;;;13.40;84.40;;;;;;5075791;28;20458;-79
2023/10/27 04:15:06;;;;;;;14.37;3.57;;;13.40;84.40;;;;;;5074753;28;21260;-78
2023/10/27 04:17:34;;;;;;;13.87;4.20;;;13.40;84.30;;;;;;5073687;28;20461;-79
2023/10/27 04:20:03;;;;;;;18.03;3.90;;;13.40;84.30;;;;;;5077304;28;20471;-79
2023/10/27 04:22:32;;;;;;;15.23;4.33;;;13.40;84.30;;;;;;5076819;28;20968;-78
2023/10/27 04:25:00;;;;;;;14.60;4.33;;;13.40;84.30;;;;;;5081996;28;20448;-82
2023/10/27 04:27:29;;;;;;;15.83;4.20;;;13.40;84.30;;;;;;5072824;28;20516;-81
2023/10/27 04:29:57;;;;;;;15.17;3.83;;;13.40;84.30;;;;;;5077773;28;20912;-79
2023/10/27 04:32:26;;;;;;;12.57;4.10;;;13.40;84.20;;;;;;5070489;28;20922;-78
2023/10/27 04:34:54;;;;;;;19.83;4.10;;;13.40;84.20;;;;;;5071669;28;20503;-80
2023/10/27 04:37:22;;;;;;;17.90;4.30;;;13.40;84.20;;;;;;5073129;28;20461;-78
2023/10/27 04:39:54;;;;;;;16.07;4.40;;;13.40;84.20;;;;;;5060981;28;20555;-80
2023/10/27 04:42:23;;;;;;;14.47;4.57;;;13.40;84.30;;;;;;5073622;28;20496;-79
2023/10/27 04:44:51;;;;;;;13.03;4.60;;;13.40;84.20;;;;;;5068492;28;20479;-78
2023/10/27 04:47:20;;;;;;;20.23;4.77;;;13.40;84.20;;;;;;5074506;28;20817;-78
2023/10/27 04:49:49;;;;;;;15.43;5.07;;;13.30;84.20;;;;;;5078584;28;20552;-80
2023/10/27 04:52:17;;;;;;;14.67;3.37;;;13.30;84.20;;;;;;5073039;28;21170;-79
2023/10/27 04:54:45;;;;;;;18.20;6.00;;;13.40;84.20;;;;;;5071390;28;21029;-78
2023/10/27 04:57:13;;;;;;;16.53;6.10;;;13.30;84.30;;;;;;5080878;28;20467;-79
2023/10/27 04:59:41;;;;;;;23.83;7.87;;;13.30;84.30;;;;;;5068419;28;20473;-78
2023/10/27 05:02:10;;;;;;;15.17;6.27;;;13.30;84.30;;;;;;5073658;28;20535;-78
2023/10/27 05:04:38;;;;;;;13.67;5.70;;;13.30;84.30;;;;;;5078269;28;20473;-79
2023/10/27 05:07:08;;;;;;;13.27;5.63;;;13.30;84.30;;;;;;5067152;28;20469;-78
2023/10/27 05:09:36;;;;;;;13.13;4.77;;;13.30;84.30;;;;;;5070951;28;20453;-80
2023/10/27 05:12:06;;;;;;;15.77;4.90;;;13.30;84.30;;;;;;5068835;28;20476;-79
2023/10/27 05:14:34;;;;;;;18.30;6.60;;;13.30;84.30;;;;;;5078340;28;20454;-78
2023/10/27 05:17:03;;;;;;;27.40;10.80;;;13.30;84.40;;;;;;5066008;28;20461;-80
2023/10/27 05:19:31;;;;;;;19.93;8.23;;;13.30;84.30;;;;;;5069035;28;20571;-78
2023/10/27 05:22:03;;;;;;;18.47;6.60;;;13.20;84.40;;;;;;5067973;28;20476;-78
2023/10/27 05:24:33;;;;;;;30.03;16.90;;;13.20;84.40;;;;;;5073681;28;20990;-79
2023/10/27 05:27:02;;;;;;;26.83;10.13;;;13.20;84.50;;;;;;5076813;28;20463;-79
2023/10/27 05:29:31;;;;;;;23.53;10.60;;;13.20;84.50;;;;;;5072430;28;20464;-78
2023/10/27 05:31:59;;;;;;;15.13;6.50;;;13.20;84.50;;;;;;5074079;28;20474;-78
2023/10/27 05:34:29;;;;;;;16.63;6.13;;;13.20;84.60;;;;;;5072919;28;20477;-78
2023/10/27 05:36:59;;;;;;;18.40;7.20;;;13.20;84.50;;;;;;5071805;28;20464;-78
2023/10/27 05:39:27;;;;;;;15.63;4.50;;;13.20;84.50;;;;;;5072028;28;20893;-80
2023/10/27 05:41:57;;;;;;;12.97;4.77;;;13.20;84.60;;;;;;5077165;28;20445;-79
2023/10/27 05:44:28;;;;;;;13.40;4.13;;;13.20;84.60;;;;;;5074385;28;20552;-79
2023/10/27 05:46:58;;;;;;;13.33;4.93;;;13.20;84.60;;;;;;5071939;28;20548;-78
2023/10/27 05:49:26;;;;;;;15.93;5.77;;;13.20;84.60;;;;;;5069327;28;20476;-77
2023/10/27 05:51:54;;;;;;;14.07;4.53;;;13.20;84.70;;;;;;5073752;28;20488;-79
2023/10/27 05:54:22;;;;;;;13.33;5.23;;;13.20;84.70;;;;;;5070454;28;20476;-80
2023/10/27 05:56:52;;;;;;;13.67;6.10;;;13.20;84.70;;;;;;5066711;28;20454;-79
2023/10/27 05:59:21;;;;;;;15.33;5.47;;;13.20;84.60;;;;;;5073820;28;20572;-77
2023/10/27 06:01:53;;;;;;;11.37;4.93;;;13.20;84.60;;;;;;5083795;28;20556;-77
2023/10/27 06:04:39;;;;;;;10.50;4.90;;;13.20;84.70;;;;;;5078453;28;20526;-78
2023/10/27 06:07:07;;;;;;;16.33;5.00;;;13.20;84.60;;;;;;5077209;28;20491;-78
2023/10/27 06:09:36;;;;;;;12.37;4.33;;;13.20;84.70;;;;;;5095703;28;20899;-78
2023/10/27 06:12:05;;;;;;;16.17;4.57;;;13.30;84.70;;;;;;5094143;28;20455;-77
2023/10/27 06:14:34;;;;;;;15.10;5.83;;;13.30;84.70;;;;;;5101534;28;20466;-78
2023/10/27 06:17:03;;;;;;;15.70;5.80;;;13.30;84.70;;;;;;5098897;28;20496;-78
2023/10/27 06:19:31;;;;;;;11.93;5.90;;;13.30;84.70;;;;;;5080256;28;20832;-77
2023/10/27 06:22:00;;;;;;;16.77;6.57;;;13.30;84.60;;;;;;5070742;28;21211;-77
2023/10/27 06:24:29;;;;;;;15.37;4.80;;;13.30;84.60;;;;;;5091056;28;20441;-77
2023/10/27 06:26:58;;;;;;;14.87;6.33;;;13.30;84.60;;;;;;5093024;28;20459;-79
2023/10/27 06:29:27;;;;;;;15.90;5.53;;;13.30;84.60;;;;;;5082995;28;20448;-78
2023/10/27 06:31:56;;;;;;;14.83;6.50;;;13.30;84.60;;;;;;5068116;28;20470;-77
2023/10/27 06:34:24;;;;;;;13.33;6.10;;;13.30;84.60;;;;;;5077419;28;20449;-77
2023/10/27 06:36:52;;;;;;;18.17;5.77;;;13.30;84.60;;;;;;5066317;28;20461;-78
2023/10/27 06:39:25;;;;;;;12.10;5.13;;;13.30;84.70;;;;;;5071727;28;20491;-78
2023/10/27 06:41:53;;;;;;;19.00;5.43;;;13.30;84.60;;;;;;5069287;28;20454;-78
2023/10/27 06:44:21;;;;;;;10.20;4.30;;;13.30;84.60;;;;;;5060533;28;20540;-77
2023/10/27 06:46:49;;;;;;;11.53;4.53;;;13.20;84.60;;;;;;5081701;28;20543;-78
2023/10/27 06:49:18;;;;;;;9.40;4.63;;;13.30;84.60;;;;;;5075824;28;20467;-77
2023/10/27 06:51:47;;;;;;;15.00;4.63;;;13.20;84.60;;;;;;5071499;28;20882;-78
2023/10/27 06:54:15;;;;;;;10.40;4.90;;;13.20;84.70;;;;;;5070475;28;20463;-78
2023/10/27 06:56:44;;;;;;;14.23;5.50;;;13.20;84.70;;;;;;5050167;28;20558;-78
2023/10/27 06:59:12;;;;;;;14.80;5.50;;;13.20;84.70;;;;;;5061617;28;20452;-77
2023/10/27 07:01:40;;;;;;;10.97;5.43;;;13.20;84.80;;;;;;5060031;28;20483;-77
2023/10/27 07:04:08;;;;;;;12.33;6.30;;;13.20;84.70;;;;;;5077670;28;20494;-77
2023/10/27 07:06:39;;;;;;;10.27;5.60;;;13.20;84.70;;;;;;5054090;28;20495;-78
2023/10/27 07:09:07;;;;;;;13.87;5.60;;;13.20;84.70;;;;;;5064607;28;20458;-78
2023/10/27 07:11:35;;;;;;;14.23;5.37;;;13.20;84.80;;;;;;5072497;28;20665;-78
2023/10/27 07:14:03;;;;;;;12.10;5.07;;;13.20;84.90;;;;;;5072790;28;20525;-77
2023/10/27 07:16:31;;;;;;;10.17;5.03;;;13.30;84.90;;;;;;5074290;28;20540;-77
2023/10/27 07:18:59;;;;;;;9.77;4.67;;;13.30;84.80;;;;;;5076775;28;20465;-77
2023/10/27 07:21:28;;;;;;;8.43;3.97;;;13.30;84.90;;;;;;5072588;28;20489;-77
2023/10/27 07:23:57;;;;;;;11.30;4.20;;;13.30;84.70;;;;;;5050938;28;20453;-77
2023/10/27 07:26:25;;;;;;;9.10;4.53;;;13.30;84.80;;;;;;5054755;28;21013;-80
2023/10/27 07:28:53;;;;;;;9.83;4.00;;;13.30;84.90;;;;;;5072504;28;20956;-77
2023/10/27 07:31:21;;;;;;;7.87;4.00;;;13.30;84.90;;;;;;5052953;28;20474;-77
2023/10/27 07:33:50;;;;;;;11.13;4.27;;;13.30;84.90;;;;;;5056230;28;21297;-78
2023/10/27 07:36:18;;;;;;;8.70;4.00;;;13.30;84.90;;;;;;5070674;28;20446;-77
2023/10/27 07:38:46;;;;;;;10.17;4.87;;;13.30;84.80;;;;;;5070718;28;20465;-78
2023/10/27 07:41:16;;;;;;;10.10;4.67;;;13.40;84.80;;;;;;5053391;28;20481;-78
2023/10/27 07:43:46;;;;;;;8.40;3.90;;;13.40;84.90;;;;;;5075531;28;20536;-78
2023/10/27 07:46:14;;;;;;;14.07;5.13;;;13.40;84.90;;;;;;5077256;28;21034;-79
2023/10/27 07:48:43;;;;;;;10.83;4.70;;;13.40;84.90;;;;;;5054959;28;20986;-78
2023/10/27 07:51:12;;;;;;;8.53;4.20;;;13.40;84.90;;;;;;5072886;28;20464;-78
2023/10/27 07:53:41;;;;;;;10.47;4.77;;;13.40;84.90;;;;;;5054995;28;20471;-78
2023/10/27 07:56:11;;;;;;;10.03;4.67;;;13.40;84.90;;;;;;5081085;28;20525;-79
2023/10/27 07:58:41;;;;;;;9.03;4.20;;;13.40;84.90;;;;;;5061467;28;20545;-78
2023/10/27 08:01:10;;;;;;;10.10;5.00;;;13.40;84.90;;;;;;5069860;28;20476;-78
2023/10/27 08:03:38;;;;;;;11.90;3.90;;;13.40;84.90;;;;;;5075932;28;20457;-78
2023/10/27 08:06:07;;;;;;;13.13;4.40;;;13.40;84.90;;;;;;5075831;28;20468;-77
2023/10/27 08:08:37;;;;;;;5.93;3.20;;;13.50;85.00;;;;;;5057057;28;20476;-78
2023/10/27 08:11:06;;;;;;;8.60;3.03;;;13.50;84.90;;;;;;5079023;28;20448;-79
2023/10/27 08:13:34;;;;;;;10.10;3.70;;;13.50;84.90;;;;;;5056519;28;20456;-78
2023/10/27 08:16:04;;;;;;;12.20;3.70;;;13.50;84.90;;;;;;5058773;28;20456;-78
2023/10/27 08:18:32;;;;;;;10.53;3.40;;;13.40;84.90;;;;;;5076222;28;20463;-78
2023/10/27 08:21:00;;;;;;;9.27;3.67;;;13.40;84.80;;;;;;5077878;28;20533;-77
2023/10/27 08:23:28;;;;;;;8.60;3.67;;;13.40;84.90;;;;;;5075344;28;20466;-78
2023/10/27 08:25:56;;;;;;;7.90;3.03;;;13.40;84.90;;;;;;5074919;28;20938;-79
2023/10/27 08:28:24;;;;;;;5.80;2.70;;;13.40;85.00;;;;;;5045026;28;20494;-79
2023/10/27 08:30:53;;;;;;;7.33;2.53;;;13.40;84.90;;;;;;5059938;28;20461;-78
2023/10/27 08:33:22;;;;;;;7.73;3.00;;;13.40;85.00;;;;;;5071620;28;20545;-79
2023/10/27 08:35:50;;;;;;;7.67;2.60;;;13.40;85.00;;;;;;5071220;28;20552;-79
2023/10/27 08:38:18;;;;;;;10.57;2.53;;;13.40;84.90;;;;;;5074015;28;20950;-78
2023/10/27 08:40:47;;;;;;;5.13;2.20;;;13.40;85.00;;;;;;5056265;28;20482;-79
2023/10/27 08:43:15;;;;;;;6.60;2.17;;;13.40;85.00;;;;;;5075819;28;20459;-78
2023/10/27 08:45:44;;;;;;;6.80;2.10;;;13.40;85.00;;;;;;5074838;28;20450;-78
2023/10/27 08:48:12;;;;;;;4.47;1.70;;;13.40;85.00;;;;;;5078168;28;20473;-78
2023/10/27 08:50:42;;;;;;;4.90;1.70;;;13.40;85.00;;;;;;5078745;28;20442;-77
2023/10/27 08:53:12;;;;;;;5.37;1.53;;;13.40;85.10;;;;;;5075959;28;20622;-78
2023/10/27 08:55:41;;;;;;;4.27;1.53;;;13.40;85.10;;;;;;5072395;28;20487;-78
2023/10/27 08:58:09;;;;;;;9.33;1.63;;;13.40;85.10;;;;;;5072266;28;20445;-78
2023/10/27 09:00:37;;;;;;;5.00;1.57;;;13.40;85.20;;;;;;5081087;28;20483;-78
2023/10/27 09:03:16;;;;;;;5.53;1.77;;;13.40;85.20;;;;;;5093658;28;20451;-78
2023/10/27 09:05:45;;;;;;;4.33;1.57;;;13.40;85.20;;;;;;5093984;28;20460;-77
2023/10/27 09:08:13;;;;;;;5.80;1.80;;;13.50;85.20;;;;;;5091266;28;20468;-78
2023/10/27 09:10:46;;;;;;;4.03;1.43;;;13.40;85.20;;;;;;5097629;28;20475;-78
2023/10/27 09:13:21;;;;;;;4.20;1.30;;;13.40;85.20;;;;;;5094181;28;20485;-78
2023/10/27 09:15:51;;;;;;;5.03;1.33;;;13.40;85.30;;;;;;5093547;28;20449;-77
2023/10/27 09:18:33;;;;;;;3.50;1.20;;;13.40;85.20;;;;;;5094181;28;20484;-77
2023/10/27 09:21:03;;;;;;;4.77;1.20;;;13.40;85.20;;;;;;5094333;28;20514;-77
2023/10/27 09:23:44;;;;;;;3.17;0.90;;;13.40;85.20;;;;;;5098652;28;20464;-78
2023/10/27 09:26:12;;;;;;;3.73;1.20;;;13.50;85.30;;;;;;5073624;28;20452;-77
2023/10/27 09:28:40;;;;;;;4.00;1.00;;;13.40;85.20;;;;;;5092524;28;20491;-77
2023/10/27 09:31:08;;;;;;;4.80;1.10;;;13.40;85.20;;;;;;5096860;28;20487;-77
2023/10/27 09:33:36;;;;;;;6.30;1.33;;;13.40;85.20;;;;;;5090710;28;20522;-77
2023/10/27 09:36:08;;;;;;;3.70;0.90;;;13.40;85.30;;;;;;5077495;28;20454;-78
2023/10/27 09:38:36;;;;;;;3.10;0.80;;;13.40;85.40;;;;;;5091233;28;20509;-77
2023/10/27 09:41:08;;;;;;;3.00;0.60;;;13.40;85.40;;;;;;5101683;28;20479;-77
2023/10/27 09:43:41;;;;;;;3.17;0.83;;;13.40;85.30;;;;;;5095012;28;20551;-77
2023/10/27 09:46:11;;;;;;;4.73;0.90;;;13.40;85.40;;;;;;5097564;28;20470;-77
2023/10/27 09:48:43;;;;;;;3.43;0.90;;;13.40;85.40;;;;;;5094364;28;20551;-79
2023/10/27 09:51:16;;;;;;;2.97;0.67;;;13.50;85.30;;;;;;5092849;28;20469;-77
2023/10/27 09:53:47;;;;;;;2.90;0.53;;;13.50;85.40;;;;;;5085039;28;20539;-78
2023/10/27 09:56:17;;;;;;;3.10;0.80;;;13.50;85.40;;;;;;5093662;28;21005;-78
2023/10/27 09:58:46;;;;;;;3.23;0.93;;;13.50;85.30;;;;;;5096355;28;20951;-77
2023/10/27 10:01:19;;;;;;;4.13;0.87;;;13.50;85.40;;;;;;5092460;28;21047;-78
2023/10/27 10:03:47;;;;;;;4.97;1.00;;;13.50;85.40;;;;;;5071727;28;20471;-78
2023/10/27 10:06:18;;;;;;;3.60;1.10;;;13.50;85.40;;;;;;5072809;28;20503;-78
2023/10/27 10:09:09;;;;;;;3.40;0.90;;;13.50;85.30;;;;;;5088017;28;21194;-78
2023/10/27 10:11:55;;;;;;;4.03;0.93;;;13.50;85.40;;;;;;5090227;28;20456;-78
2023/10/27 10:14:51;;;;;;;2.90;0.60;;;13.50;85.50;;;;;;5090684;28;20823;-78
2023/10/27 10:17:41;;;;;;;3.40;0.60;;;13.50;85.60;;;;;;5072405;28;20508;-79
2023/10/27 10:20:10;;;;;;;3.73;0.70;;;13.50;85.80;;;;;;5083866;28;20480;-78
2023/10/27 10:22:57;;;;;;;3.20;0.63;;;13.60;85.90;;;;;;5086731;28;20511;-79
2023/10/27 10:25:29;;;;;;;3.30;0.80;;;13.60;85.80;;;;;;5091837;28;20628;-78
2023/10/27 10:28:27;;;;;;;3.57;0.60;;;13.70;85.80;;;;;;5094481;28;20479;-79
2023/10/27 10:31:28;;;;;;;3.20;0.70;;;13.70;85.70;;;;;;5087084;28;20492;-78
2023/10/27 10:34:11;;;;;;;4.13;0.60;;;13.70;85.80;;;;;;5066674;28;20456;-78
2023/10/27 10:36:40;;;;;;;3.20;0.60;;;13.80;85.80;;;;;;5086051;28;20516;-80
2023/10/27 10:39:13;;;;;;;3.50;1.00;;;13.80;85.70;;;;;;5089422;28;20468;-78
2023/10/27 10:42:01;;;;;;;4.30;0.60;;;13.90;85.80;;;;;;5092904;28;20507;-78
2023/10/27 10:44:31;;;;;;;4.57;0.80;;;13.90;85.50;;;;;;5091171;28;21028;-79
2023/10/27 10:47:09;;;;;;;4.57;1.00;;;13.90;85.60;;;;;;5087539;28;21235;-78
2023/10/27 10:49:41;;;;;;;2.90;0.60;;;13.90;85.60;;;;;;5092052;28;20500;-78
2023/10/27 10:52:10;;;;;;;3.87;0.90;;;14.00;85.40;;;;;;5070881;28;20463;-79
2023/10/27 10:54:40;;;;;;;4.07;0.90;;;13.90;85.20;;;;;;5090200;28;20472;-78
2023/10/27 10:57:09;;;;;;;3.73;0.77;;;13.90;85.20;;;;;;5091394;28;20543;-78
2023/10/27 10:59:37;;;;;;;3.50;0.90;;;13.90;85.20;;;;;;5071975;28;20465;-78
2023/10/27 11:02:08;;;;;;;4.20;1.00;;;13.80;85.00;;;;;;5069582;28;20527;-78
2023/10/27 11:04:37;;;;;;;4.03;1.00;;;13.80;85.10;;;;;;5068289;28;20453;-78
2023/10/27 11:07:07;;;;;;;3.67;0.90;;;13.80;85.20;;;;;;5067091;28;20476;-78
2023/10/27 11:09:36;;;;;;;3.37;0.73;;;13.80;85.20;;;;;;5072278;28;20454;-79
2023/10/27 11:12:06;;;;;;;4.37;0.80;;;13.80;85.20;;;;;;5094519;28;20830;-80
2023/10/27 11:14:41;;;;;;;3.37;1.00;;;13.80;85.10;;;;;;5092974;28;20509;-78
2023/10/27 11:17:11;;;;;;;3.50;0.90;;;13.80;85.00;;;;;;5088808;28;20980;-78
2023/10/27 11:19:53;;;;;;;3.53;1.00;;;13.80;85.00;;;;;;5092207;28;20464;-77
2023/10/27 11:22:27;;;;;;;3.33;0.90;;;13.80;85.00;;;;;;5096619;28;20578;-78
2023/10/27 11:24:55;;;;;;;3.60;1.20;;;13.80;85.20;;;;;;5093766;28;20460;-78
2023/10/27 11:27:26;;;;;;;4.27;0.90;;;13.80;85.20;;;;;;5077484;28;20524;-78
2023/10/27 11:30:01;;;;;;;4.70;1.30;;;13.90;85.20;;;;;;5090478;28;20464;-79
2023/10/27 11:32:29;;;;;;;4.30;1.40;;;13.90;85.20;;;;;;5096760;28;20473;-78
2023/10/27 11:35:02;;;;;;;5.60;1.47;;;13.90;85.20;;;;;;5088847;28;20534;-79
2023/10/27 11:37:30;;;;;;;3.70;1.37;;;13.90;85.20;;;;;;5094662;28;20473;-78
2023/10/27 11:40:13;;;;;;;4.70;1.50;;;13.90;85.10;;;;;;5093551;28;20464;-78
2023/10/27 11:42:43;;;;;;;7.07;1.50;;;14.00;85.20;;;;;;5078195;28;20560;-78
2023/10/27 11:45:11;;;;;;;4.00;1.57;;;14.00;85.20;;;;;;5097702;28;20548;-78
2023/10/27 11:47:39;;;;;;;4.20;1.50;;;14.00;85.10;;;;;;5077333;28;20460;-78
2023/10/27 11:50:09;;;;;;;3.87;1.60;;;14.10;85.10;;;;;;5097749;28;21041;-78
2023/10/27 11:52:37;;;;;;;4.40;2.10;;;14.10;85.00;;;;;;5092945;28;20470;-78
2023/10/27 11:55:06;;;;;;;6.93;1.83;;;14.10;85.00;;;;;;5075872;28;20993;-78
2023/10/27 11:57:35;;;;;;;4.70;1.73;;;14.10;84.90;;;;;;5093929;28;20463;-78
2023/10/27 12:00:08;;;;;;;6.13;1.80;;;14.10;84.90;;;;;;5092046;28;21010;-78
2023/10/27 12:02:39;;;;;;;5.30;1.83;;;14.10;84.70;;;;;;5059624;28;21173;-78
2023/10/27 12:05:08;;;;;;;7.13;1.80;;;14.10;84.70;;;;;;5058930;28;20560;-79
2023/10/27 12:07:38;;;;;;;4.20;1.43;;;14.10;84.70;;;;;;5062451;28;20492;-79
2023/10/27 12:10:09;;;;;;;4.70;1.80;;;14.10;84.60;;;;;;5061982;28;20469;-78
2023/10/27 12:12:40;;;;;;;5.80;2.13;;;14.10;84.70;;;;;;5078595;28;20465;-78
2023/10/27 12:15:14;;;;;;;5.30;2.20;;;14.20;84.70;;;;;;5077468;28;21010;-78
2023/10/27 12:17:42;;;;;;;6.27;2.10;;;14.20;84.70;;;;;;5077568;28;21087;-78
2023/10/27 12:20:12;;;;;;;6.70;2.20;;;14.20;84.60;;;;;;5076640;28;20551;-78
2023/10/27 12:22:45;;;;;;;5.03;2.00;;;14.20;84.70;;;;;;5076871;28;20835;-78
2023/10/27 12:25:13;;;;;;;7.63;2.00;;;14.30;84.60;;;;;;5078246;28;20526;-78
2023/10/27 12:27:42;;;;;;;7.20;2.20;;;14.30;84.60;;;;;;5076810;28;20480;-78
2023/10/27 12:30:15;;;;;;;7.10;2.10;;;14.30;84.60;;;;;;5073315;28;20472;-79
2023/10/27 12:32:44;;;;;;;6.43;1.90;;;14.30;84.60;;;;;;5088175;28;20499;-78
2023/10/27 12:35:15;;;;;;;6.00;2.20;;;14.40;84.50;;;;;;5088494;28;21007;-78
2023/10/27 12:37:43;;;;;;;8.93;2.57;;;14.40;84.30;;;;;;5098159;28;20499;-79
2023/10/27 12:40:12;;;;;;;7.90;1.77;;;14.40;84.30;;;;;;5091187;28;20527;-78
2023/10/27 12:42:40;;;;;;;5.63;1.83;;;14.40;84.10;;;;;;5074933;28;21035;-78
2023/10/27 12:45:12;;;;;;;6.00;1.80;;;14.40;83.90;;;;;;5064433;28;20974;-78
2023/10/27 12:47:43;;;;;;;6.30;1.90;;;14.40;83.80;;;;;;5089090;28;20557;-78
2023/10/27 12:50:12;;;;;;;5.90;1.60;;;14.40;83.70;;;;;;5090267;28;20460;-78
2023/10/27 12:52:40;;;;;;;4.30;1.47;;;14.40;83.70;;;;;;5089264;28;20566;-78
2023/10/27 12:55:11;;;;;;;8.00;1.40;;;14.30;83.60;;;;;;5086627;28;20534;-78